Boden, Illinois
Current Conditions -  °F | °C
As of 12:52 AM on Friday 19 Dec 2014 (Local Time) from KMLI Reporting Station
Clear Clear  
Wind Chill: 18°   Ceiling: Unl
Heat Index: 18°   Visibility: 7mi
Dew Point: 15°   Wind: 0mph
Humidity: 88%   Direction: NA
Pressure: 30.31"   Gusts: NA
Location:  41.2864°N, 90.4945°W
Report Text: KMLI 190652Z AUTO 00000KT 7SM CLR M08/M09 A3031 RMK AO2 SLP272 T10781094
Loading
Personal Weather Stations






























Interactive Weather Map New forecast layout! Learn more

10-Day Weather Forecast

Advertisements
Track Severe Weather on mobile